sensor_id;sensor_type;location;lat;lon;timestamp;pressure;altitude;pressure_sealevel;temperature;humidity
49377;BME280;35253;34.688;33.040;2023-04-09T00:01:47;100969.59;;;18.01;100.00
49377;BME280;35253;34.688;33.040;2023-04-09T00:04:12;100970.19;;;18.05;100.00
49377;BME280;35253;34.688;33.040;2023-04-09T00:06:38;100976.72;;;18.02;100.00
49377;BME280;35253;34.688;33.040;2023-04-09T00:09:04;100984.34;;;17.97;100.00
49377;BME280;35253;34.688;33.040;2023-04-09T00:11:29;100985.31;;;17.96;100.00
49377;BME280;35253;34.688;33.040;2023-04-09T00:13:56;100969.88;;;17.98;100.00
49377;BME280;35253;34.688;33.040;2023-04-09T00:16:22;100974.72;;;18.04;100.00
49377;BME280;35253;34.688;33.040;2023-04-09T00:18:48;100973.88;;;18.03;100.00
49377;BME280;35253;34.688;33.040;2023-04-09T00:21:15;100985.66;;;18.02;100.00
49377;BME280;35253;34.688;33.040;2023-04-09T00:23:41;100989.72;;;17.97;100.00
49377;BME280;35253;34.688;33.040;2023-04-09T00:26:07;100984.81;;;18.02;100.00
49377;BME280;35253;34.688;33.040;2023-04-09T00:28:33;100990.78;;;18.06;100.00
49377;BME280;35253;34.688;33.040;2023-04-09T00:31:01;101007.63;;;17.98;100.00
49377;BME280;35253;34.688;33.040;2023-04-09T00:33:28;101013.53;;;17.92;100.00
49377;BME280;35253;34.688;33.040;2023-04-09T00:35:54;101004.47;;;17.93;100.00
49377;BME280;35253;34.688;33.040;2023-04-09T00:38:19;101013.75;;;18.00;100.00
49377;BME280;35253;34.688;33.040;2023-04-09T00:40:49;101025.53;;;17.99;100.00
49377;BME280;35253;34.688;33.040;2023-04-09T00:43:16;101041.31;;;18.03;100.00
49377;BME280;35253;34.688;33.040;2023-04-09T00:45:43;101040.53;;;17.92;100.00
49377;BME280;35253;34.688;33.040;2023-04-09T00:48:09;101041.97;;;17.96;100.00
49377;BME280;35253;34.688;33.040;2023-04-09T00:50:35;101030.88;;;18.10;100.00
49377;BME280;35253;34.688;33.040;2023-04-09T00:53:01;101033.84;;;18.07;100.00
49377;BME280;35253;34.688;33.040;2023-04-09T00:55:28;101025.75;;;18.07;100.00
49377;BME280;35253;34.688;33.040;2023-04-09T00:57:55;100999.25;;;18.12;100.00
49377;BME280;35253;34.688;33.040;2023-04-09T01:00:20;100989.72;;;17.97;100.00
49377;BME280;35253;34.688;33.040;2023-04-09T01:02:47;100974.41;;;17.97;100.00
49377;BME280;35253;34.688;33.040;2023-04-09T01:05:13;100982.13;;;18.02;100.00
49377;BME280;35253;34.688;33.040;2023-04-09T01:16:02;100917.28;;;17.92;100.00
49377;BME280;35253;34.688;33.040;2023-04-09T01:18:42;100897.34;;;17.84;100.00
49377;BME280;35253;34.688;33.040;2023-04-09T01:21:12;100874.53;;;17.88;100.00
49377;BME280;35253;34.688;33.040;2023-04-09T01:29:14;100854.91;;;17.65;100.00
49377;BME280;35253;34.688;33.040;2023-04-09T01:31:42;100863.41;;;17.61;100.00
49377;BME280;35253;34.688;33.040;2023-04-09T01:34:09;100869.94;;;17.58;100.00
49377;BME280;35253;34.688;33.040;2023-04-09T01:36:36;100868.88;;;17.38;100.00
49377;BME280;35253;34.688;33.040;2023-04-09T01:39:05;100856.06;;;17.51;100.00
49377;BME280;35253;34.688;33.040;2023-04-09T01:41:32;100849.69;;;17.52;100.00
49377;BME280;35253;34.688;33.040;2023-04-09T01:44:00;100847.00;;;17.64;100.00
49377;BME280;35253;34.688;33.040;2023-04-09T01:46:28;100853.84;;;17.77;100.00
49377;BME280;35253;34.688;33.040;2023-04-09T01:48:54;100858.66;;;17.74;100.00
49377;BME280;35253;34.688;33.040;2023-04-09T01:51:19;100853.03;;;17.77;100.00
49377;BME280;35253;34.688;33.040;2023-04-09T01:53:45;100836.00;;;17.76;100.00
49377;BME280;35253;34.688;33.040;2023-04-09T01:56:11;100794.91;;;17.93;100.00
49377;BME280;35253;34.688;33.040;2023-04-09T01:58:36;100802.94;;;17.84;100.00
49377;BME280;35253;34.688;33.040;2023-04-09T02:01:07;100811.38;;;17.49;100.00
49377;BME280;35253;34.688;33.040;2023-04-09T02:03:53;100822.59;;;17.33;100.00
49377;BME280;35253;34.688;33.040;2023-04-09T02:06:47;100816.94;;;17.36;100.00
49377;BME280;35253;34.688;33.040;2023-04-09T02:09:17;100809.25;;;17.52;100.00
49377;BME280;35253;34.688;33.040;2023-04-09T02:11:45;100798.34;;;17.54;100.00
49377;BME280;35253;34.688;33.040;2023-04-09T02:14:12;100820.25;;;17.61;100.00
49377;BME280;35253;34.688;33.040;2023-04-09T02:16:40;100829.09;;;17.63;100.00
49377;BME280;35253;34.688;33.040;2023-04-09T02:19:05;100851.91;;;17.47;100.00
49377;BME280;35253;34.688;33.040;2023-04-09T02:21:31;100872.91;;;17.44;100.00
49377;BME280;35253;34.688;33.040;2023-04-09T02:23:57;100883.28;;;17.48;100.00
49377;BME280;35253;34.688;33.040;2023-04-09T02:26:22;100894.13;;;17.37;100.00
49377;BME280;35253;34.688;33.040;2023-04-09T02:28:49;100870.31;;;17.42;100.00
49377;BME280;35253;34.688;33.040;2023-04-09T02:31:15;100861.06;;;17.35;100.00
49377;BME280;35253;34.688;33.040;2023-04-09T02:33:41;100879.66;;;17.38;100.00
49377;BME280;35253;34.688;33.040;2023-04-09T02:36:10;100887.06;;;17.25;100.00
49377;BME280;35253;34.688;33.040;2023-04-09T02:38:38;100888.56;;;17.18;100.00
49377;BME280;35253;34.688;33.040;2023-04-09T02:41:04;100850.75;;;17.40;100.00
49377;BME280;35253;34.688;33.040;2023-04-09T02:43:30;100837.19;;;17.51;100.00
49377;BME280;35253;34.688;33.040;2023-04-09T02:45:55;100844.72;;;17.69;100.00
49377;BME280;35253;34.688;33.040;2023-04-09T02:48:21;100853.81;;;17.68;100.00
49377;BME280;35253;34.688;33.040;2023-04-09T02:50:47;100883.56;;;17.45;100.00
49377;BME280;35253;34.688;33.040;2023-04-09T02:53:12;100895.75;;;17.29;100.00
49377;BME280;35253;34.688;33.040;2023-04-09T02:55:38;100869.59;;;17.40;100.00
49377;BME280;35253;34.688;33.040;2023-04-09T02:58:04;100872.63;;;17.58;100.00
49377;BME280;35253;34.688;33.040;2023-04-09T03:00:29;100897.25;;;17.53;100.00
49377;BME280;35253;34.688;33.040;2023-04-09T03:02:55;100926.97;;;17.31;100.00
49377;BME280;35253;34.688;33.040;2023-04-09T03:05:22;100947.09;;;17.16;100.00
49377;BME280;35253;34.688;33.040;2023-04-09T03:07:48;100955.53;;;17.23;100.00
49377;BME280;35253;34.688;33.040;2023-04-09T03:10:14;100945.47;;;17.36;100.00
49377;BME280;35253;34.688;33.040;2023-04-09T03:12:40;100942.31;;;17.51;100.00
49377;BME280;35253;34.688;33.040;2023-04-09T03:15:09;100907.91;;;17.55;100.00
49377;BME280;35253;34.688;33.040;2023-04-09T03:17:35;100903.63;;;17.52;100.00
49377;BME280;35253;34.688;33.040;2023-04-09T03:20:01;100896.00;;;17.57;100.00
49377;BME280;35253;34.688;33.040;2023-04-09T03:22:26;100916.03;;;17.76;100.00
49377;BME280;35253;34.688;33.040;2023-04-09T03:24:52;100918.78;;;17.65;100.00
49377;BME280;35253;34.688;33.040;2023-04-09T03:27:18;100923.69;;;17.60;100.00
49377;BME280;35253;34.688;33.040;2023-04-09T03:29:43;100899.38;;;17.71;100.00
49377;BME280;35253;34.688;33.040;2023-04-09T03:32:09;100880.50;;;17.71;100.00
49377;BME280;35253;34.688;33.040;2023-04-09T03:34:35;100894.13;;;17.69;100.00
49377;BME280;35253;34.688;33.040;2023-04-09T03:37:00;100932.25;;;17.65;100.00
49377;BME280;35253;34.688;33.040;2023-04-09T03:39:26;100939.25;;;17.67;100.00
49377;BME280;35253;34.688;33.040;2023-04-09T03:41:56;100949.38;;;17.75;100.00
49377;BME280;35253;34.688;33.040;2023-04-09T03:44:23;100945.22;;;17.71;100.00
49377;BME280;35253;34.688;33.040;2023-04-09T03:46:48;100944.47;;;17.80;100.00
49377;BME280;35253;34.688;33.040;2023-04-09T03:49:14;100938.78;;;17.83;100.00
49377;BME280;35253;34.688;33.040;2023-04-09T03:51:40;100903.28;;;17.98;100.00
49377;BME280;35253;34.688;33.040;2023-04-09T03:54:06;100891.22;;;18.02;100.00
49377;BME280;35253;34.688;33.040;2023-04-09T03:56:31;100911.31;;;17.89;100.00
49377;BME280;35253;34.688;33.040;2023-04-09T03:58:57;100911.56;;;17.86;100.00
49377;BME280;35253;34.688;33.040;2023-04-09T04:01:22;100908.16;;;17.84;100.00
49377;BME280;35253;34.688;33.040;2023-04-09T04:03:48;100894.66;;;17.84;100.00
49377;BME280;35253;34.688;33.040;2023-04-09T04:06:14;100892.44;;;17.89;100.00
49377;BME280;35253;34.688;33.040;2023-04-09T04:08:40;100852.84;;;17.99;100.00
49377;BME280;35253;34.688;33.040;2023-04-09T04:11:05;100825.06;;;18.08;100.00
49377;BME280;35253;34.688;33.040;2023-04-09T04:13:31;100798.47;;;17.94;100.00
49377;BME280;35253;34.688;33.040;2023-04-09T04:15:57;100785.16;;;18.02;100.00
49377;BME280;35253;34.688;33.040;2023-04-09T04:18:22;100793.94;;;18.04;100.00
49377;BME280;35253;34.688;33.040;2023-04-09T04:20:48;100824.25;;;18.17;100.00
49377;BME280;35253;34.688;33.040;2023-04-09T04:23:14;100829.56;;;18.28;100.00
49377;BME280;35253;34.688;33.040;2023-04-09T04:25:40;100834.00;;;18.29;100.00
49377;BME280;35253;34.688;33.040;2023-04-09T04:28:06;100833.75;;;18.42;100.00
49377;BME280;35253;34.688;33.040;2023-04-09T04:30:32;100836.91;;;18.47;100.00
49377;BME280;35253;34.688;33.040;2023-04-09T04:32:57;100854.97;;;18.56;100.00
49377;BME280;35253;34.688;33.040;2023-04-09T04:35:23;100866.22;;;18.61;100.00
49377;BME280;35253;34.688;33.040;2023-04-09T04:37:50;100866.53;;;18.68;100.00
49377;BME280;35253;34.688;33.040;2023-04-09T04:40:16;100888.69;;;18.62;100.00
49377;BME280;35253;34.688;33.040;2023-04-09T04:42:42;100884.47;;;18.69;100.00
49377;BME280;35253;34.688;33.040;2023-04-09T04:45:08;100876.53;;;18.77;100.00
49377;BME280;35253;34.688;33.040;2023-04-09T04:47:34;100880.94;;;18.87;100.00
49377;BME280;35253;34.688;33.040;2023-04-09T04:49:59;100894.47;;;18.97;100.00
49377;BME280;35253;34.688;33.040;2023-04-09T04:52:25;100902.41;;;18.89;100.00
49377;BME280;35253;34.688;33.040;2023-04-09T04:54:51;100917.91;;;18.87;100.00
49377;BME280;35253;34.688;33.040;2023-04-09T04:57:17;100929.56;;;18.87;100.00
49377;BME280;35253;34.688;33.040;2023-04-09T04:59:43;100940.25;;;18.89;100.00
49377;BME280;35253;34.688;33.040;2023-04-09T05:02:08;100942.41;;;18.95;100.00
49377;BME280;35253;34.688;33.040;2023-04-09T05:04:34;100946.09;;;18.94;100.00
49377;BME280;35253;34.688;33.040;2023-04-09T05:07:00;100963.84;;;18.87;100.00
49377;BME280;35253;34.688;33.040;2023-04-09T05:09:26;100962.09;;;18.76;100.00
49377;BME280;35253;34.688;33.040;2023-04-09T05:11:52;100942.22;;;18.87;100.00
49377;BME280;35253;34.688;33.040;2023-04-09T05:14:17;100935.28;;;18.94;100.00
49377;BME280;35253;34.688;33.040;2023-04-09T05:16:45;100936.44;;;19.01;100.00
49377;BME280;35253;34.688;33.040;2023-04-09T05:19:11;100929.75;;;19.05;100.00
49377;BME280;35253;34.688;33.040;2023-04-09T05:21:37;100919.53;;;18.99;100.00
49377;BME280;35253;34.688;33.040;2023-04-09T05:24:03;100926.06;;;19.06;100.00
49377;BME280;35253;34.688;33.040;2023-04-09T05:26:29;100934.50;;;19.13;100.00
49377;BME280;35253;34.688;33.040;2023-04-09T05:28:54;100944.72;;;19.19;100.00
49377;BME280;35253;34.688;33.040;2023-04-09T05:31:20;100942.34;;;19.25;100.00
49377;BME280;35253;34.688;33.040;2023-04-09T05:33:46;100935.06;;;19.35;100.00
49377;BME280;35253;34.688;33.040;2023-04-09T05:36:15;100952.72;;;19.40;100.00
49377;BME280;35253;34.688;33.040;2023-04-09T05:38:42;100968.44;;;19.46;100.00
49377;BME280;35253;34.688;33.040;2023-04-09T05:41:08;100964.03;;;19.54;100.00
49377;BME280;35253;34.688;33.040;2023-04-09T05:43:34;100974.56;;;19.67;100.00
49377;BME280;35253;34.688;33.040;2023-04-09T05:45:59;100979.97;;;19.67;100.00
49377;BME280;35253;34.688;33.040;2023-04-09T05:48:25;100984.53;;;19.86;100.00
49377;BME280;35253;34.688;33.040;2023-04-09T05:50:51;100986.25;;;19.96;100.00
49377;BME280;35253;34.688;33.040;2023-04-09T05:53:18;100977.53;;;20.02;100.00
49377;BME280;35253;34.688;33.040;2023-04-09T05:55:44;100964.00;;;20.02;100.00
49377;BME280;35253;34.688;33.040;2023-04-09T05:58:10;100957.44;;;20.14;100.00
49377;BME280;35253;34.688;33.040;2023-04-09T06:00:36;100934.66;;;20.07;100.00
49377;BME280;35253;34.688;33.040;2023-04-09T06:03:02;100931.78;;;20.18;100.00
49377;BME280;35253;34.688;33.040;2023-04-09T06:05:28;100914.53;;;20.39;100.00
49377;BME280;35253;34.688;33.040;2023-04-09T06:07:54;100922.41;;;20.59;100.00
49377;BME280;35253;34.688;33.040;2023-04-09T06:10:20;100926.50;;;20.73;100.00
49377;BME280;35253;34.688;33.040;2023-04-09T06:12:46;100921.03;;;20.83;100.00
49377;BME280;35253;34.688;33.040;2023-04-09T06:15:12;100924.94;;;20.98;100.00
49377;BME280;35253;34.688;33.040;2023-04-09T06:17:38;100927.31;;;21.10;100.00
49377;BME280;35253;34.688;33.040;2023-04-09T06:20:04;100929.72;;;21.13;100.00
49377;BME280;35253;34.688;33.040;2023-04-09T06:22:30;100927.44;;;21.19;99.43
49377;BME280;35253;34.688;33.040;2023-04-09T06:24:56;100939.66;;;21.23;99.94
49377;BME280;35253;34.688;33.040;2023-04-09T06:27:21;100947.34;;;21.27;99.35
49377;BME280;35253;34.688;33.040;2023-04-09T06:29:47;100938.03;;;21.02;98.39
49377;BME280;35253;34.688;33.040;2023-04-09T06:32:13;100952.63;;;21.01;98.54
49377;BME280;35253;34.688;33.040;2023-04-09T06:34:38;100958.09;;;20.92;98.73
49377;BME280;35253;34.688;33.040;2023-04-09T06:37:04;100979.50;;;20.85;97.82
49377;BME280;35253;34.688;33.040;2023-04-09T06:39:30;101008.88;;;20.80;97.54
49377;BME280;35253;34.688;33.040;2023-04-09T06:41:57;101035.47;;;20.67;96.86
49377;BME280;35253;34.688;33.040;2023-04-09T06:44:23;101037.72;;;20.72;95.39
49377;BME280;35253;34.688;33.040;2023-04-09T06:46:49;101050.91;;;20.66;95.50
49377;BME280;35253;34.688;33.040;2023-04-09T06:49:14;101066.56;;;20.63;93.00
49377;BME280;35253;34.688;33.040;2023-04-09T06:51:40;101061.97;;;20.73;91.36
49377;BME280;35253;34.688;33.040;2023-04-09T06:54:06;101051.03;;;20.65;92.21
49377;BME280;35253;34.688;33.040;2023-04-09T06:56:32;100975.16;;;20.65;93.65
49377;BME280;35253;34.688;33.040;2023-04-09T06:58:58;100949.25;;;20.53;100.00
49377;BME280;35253;34.688;33.040;2023-04-09T07:01:24;100979.44;;;20.58;100.00
49377;BME280;35253;34.688;33.040;2023-04-09T07:03:50;100968.75;;;20.66;100.00
49377;BME280;35253;34.688;33.040;2023-04-09T07:06:16;100954.13;;;20.77;100.00
49377;BME280;35253;34.688;33.040;2023-04-09T07:08:42;100948.09;;;20.92;100.00
49377;BME280;35253;34.688;33.040;2023-04-09T07:11:07;100944.31;;;21.03;97.17
49377;BME280;35253;34.688;33.040;2023-04-09T07:13:33;100940.88;;;21.10;96.49
49377;BME280;35253;34.688;33.040;2023-04-09T07:15:59;100928.81;;;21.23;93.31
49377;BME280;35253;34.688;33.040;2023-04-09T07:18:25;100943.25;;;21.23;93.19
49377;BME280;35253;34.688;33.040;2023-04-09T07:20:51;100948.22;;;21.28;92.16
49377;BME280;35253;34.688;33.040;2023-04-09T07:23:18;100944.56;;;21.37;90.96
49377;BME280;35253;34.688;33.040;2023-04-09T07:25:43;100947.06;;;21.48;90.87
49377;BME280;35253;34.688;33.040;2023-04-09T07:28:10;100937.66;;;21.60;83.93
49377;BME280;35253;34.688;33.040;2023-04-09T07:30:36;100949.84;;;21.74;82.81
49377;BME280;35253;34.688;33.040;2023-04-09T07:33:02;100938.66;;;21.77;82.90
49377;BME280;35253;34.688;33.040;2023-04-09T07:35:27;100927.50;;;21.80;82.46
49377;BME280;35253;34.688;33.040;2023-04-09T07:37:53;100921.56;;;21.76;80.71
49377;BME280;35253;34.688;33.040;2023-04-09T07:40:19;100935.13;;;21.76;81.55
49377;BME280;35253;34.688;33.040;2023-04-09T07:42:45;100935.66;;;21.80;82.19
49377;BME280;35253;34.688;33.040;2023-04-09T07:45:10;100949.38;;;21.78;82.14
49377;BME280;35253;34.688;33.040;2023-04-09T07:47:37;100955.88;;;21.68;82.46
49377;BME280;35253;34.688;33.040;2023-04-09T07:50:05;100945.88;;;21.68;83.28
49377;BME280;35253;34.688;33.040;2023-04-09T07:52:31;100918.13;;;21.74;86.03
49377;BME280;35253;34.688;33.040;2023-04-09T07:54:57;100899.44;;;21.71;84.93
49377;BME280;35253;34.688;33.040;2023-04-09T07:57:23;100879.81;;;21.77;84.26
49377;BME280;35253;34.688;33.040;2023-04-09T07:59:48;100851.41;;;21.89;84.49
49377;BME280;35253;34.688;33.040;2023-04-09T08:02:14;100843.34;;;21.97;84.05
49377;BME280;35253;34.688;33.040;2023-04-09T08:04:40;100842.41;;;22.07;83.38
49377;BME280;35253;34.688;33.040;2023-04-09T08:07:06;100836.47;;;22.11;82.93
49377;BME280;35253;34.688;33.040;2023-04-09T08:09:32;100828.31;;;22.45;82.98
49377;BME280;35253;34.688;33.040;2023-04-09T08:11:57;100791.34;;;22.60;83.21
49377;BME280;35253;34.688;33.040;2023-04-09T08:14:23;100776.13;;;22.83;83.25
49377;BME280;35253;34.688;33.040;2023-04-09T08:16:49;100761.19;;;23.04;81.22
49377;BME280;35253;34.688;33.040;2023-04-09T08:19:15;100750.00;;;23.23;79.81
49377;BME280;35253;34.688;33.040;2023-04-09T08:21:42;100747.63;;;23.44;79.68
49377;BME280;35253;34.688;33.040;2023-04-09T08:24:11;100748.25;;;23.70;78.13
49377;BME280;35253;34.688;33.040;2023-04-09T08:26:37;100734.63;;;23.78;77.73
49377;BME280;35253;34.688;33.040;2023-04-09T08:29:07;100727.25;;;24.03;77.11
49377;BME280;35253;34.688;33.040;2023-04-09T08:31:36;100714.00;;;24.31;73.25
49377;BME280;35253;34.688;33.040;2023-04-09T08:34:03;100721.38;;;24.53;68.31
49377;BME280;35253;34.688;33.040;2023-04-09T08:36:28;100719.53;;;24.77;64.53
49377;BME280;35253;34.688;33.040;2023-04-09T08:38:54;100727.44;;;24.94;60.78
49377;BME280;35253;34.688;33.040;2023-04-09T08:41:25;100729.38;;;25.08;61.60
49377;BME280;35253;34.688;33.040;2023-04-09T08:43:54;100735.78;;;25.16;59.16
49377;BME280;35253;34.688;33.040;2023-04-09T08:46:20;100731.78;;;25.26;56.16
49377;BME280;35253;34.688;33.040;2023-04-09T08:48:47;100735.53;;;25.25;57.62
49377;BME280;35253;34.688;33.040;2023-04-09T08:51:14;100718.00;;;25.05;57.16
49377;BME280;35253;34.688;33.040;2023-04-09T08:53:57;100722.38;;;24.91;56.08
49377;BME280;35253;34.688;33.040;2023-04-09T08:56:23;100719.91;;;24.74;56.37
49377;BME280;35253;34.688;33.040;2023-04-09T08:58:49;100729.00;;;24.66;55.89
49377;BME280;35253;34.688;33.040;2023-04-09T09:03:53;100710.41;;;24.69;53.67
49377;BME280;35253;34.688;33.040;2023-04-09T09:06:30;100727.28;;;24.65;54.86
49377;BME280;35253;34.688;33.040;2023-04-09T09:09:14;100716.06;;;24.60;56.12
49377;BME280;35253;34.688;33.040;2023-04-09T09:11:45;100716.56;;;24.63;56.52
49377;BME280;35253;34.688;33.040;2023-04-09T09:14:16;100688.44;;;24.63;57.32
49377;BME280;35253;34.688;33.040;2023-04-09T09:17:02;100657.59;;;24.62;57.63
49377;BME280;35253;34.688;33.040;2023-04-09T09:19:30;100636.84;;;24.61;58.78
49377;BME280;35253;34.688;33.040;2023-04-09T09:22:02;100663.56;;;24.66;59.02
49377;BME280;35253;34.688;33.040;2023-04-09T09:24:29;100681.13;;;24.63;60.22
49377;BME280;35253;34.688;33.040;2023-04-09T09:26:56;100697.72;;;24.77;61.20
49377;BME280;35253;34.688;33.040;2023-04-09T09:29:23;100704.50;;;24.81;63.45
49377;BME280;35253;34.688;33.040;2023-04-09T09:31:51;100725.16;;;24.52;85.35
49377;BME280;35253;34.688;33.040;2023-04-09T09:34:18;100742.31;;;24.30;93.58
49377;BME280;35253;34.688;33.040;2023-04-09T09:36:44;100765.19;;;24.13;97.79
49377;BME280;35253;34.688;33.040;2023-04-09T09:39:11;100785.34;;;23.79;100.00
49377;BME280;35253;34.688;33.040;2023-04-09T09:41:40;100799.47;;;23.26;100.00
49377;BME280;35253;34.688;33.040;2023-04-09T09:44:07;100816.94;;;22.83;100.00
49377;BME280;35253;34.688;33.040;2023-04-09T09:46:35;100806.75;;;22.43;100.00
49377;BME280;35253;34.688;33.040;2023-04-09T09:49:02;100793.63;;;21.97;100.00
49377;BME280;35253;34.688;33.040;2023-04-09T09:51:31;100805.50;;;21.78;100.00
49377;BME280;35253;34.688;33.040;2023-04-09T09:53:58;100812.91;;;21.68;100.00
49377;BME280;35253;34.688;33.040;2023-04-09T09:56:33;100822.97;;;21.50;100.00
49377;BME280;35253;34.688;33.040;2023-04-09T09:59:19;100816.75;;;21.40;100.00
49377;BME280;35253;34.688;33.040;2023-04-09T10:01:53;100819.53;;;21.48;100.00
49377;BME280;35253;34.688;33.040;2023-04-09T10:04:22;100818.53;;;21.49;100.00
49377;BME280;35253;34.688;33.040;2023-04-09T10:06:49;100810.47;;;21.39;100.00
49377;BME280;35253;34.688;33.040;2023-04-09T10:09:16;100816.69;;;21.32;100.00
49377;BME280;35253;34.688;33.040;2023-04-09T10:11:43;100813.81;;;21.33;100.00
49377;BME280;35253;34.688;33.040;2023-04-09T10:14:12;100800.81;;;21.37;100.00
49377;BME280;35253;34.688;33.040;2023-04-09T10:16:38;100798.47;;;21.42;100.00
49377;BME280;35253;34.688;33.040;2023-04-09T10:19:05;100806.38;;;21.53;100.00
49377;BME280;35253;34.688;33.040;2023-04-09T10:21:41;100792.84;;;21.61;100.00
49377;BME280;35253;34.688;33.040;2023-04-09T10:24:08;100784.09;;;21.67;100.00
49377;BME280;35253;34.688;33.040;2023-04-09T10:26:38;100788.69;;;21.75;100.00
49377;BME280;35253;34.688;33.040;2023-04-09T10:29:10;100801.56;;;21.73;100.00
49377;BME280;35253;34.688;33.040;2023-04-09T10:31:45;100799.03;;;21.71;100.00
49377;BME280;35253;34.688;33.040;2023-04-09T10:34:14;100784.75;;;21.69;100.00
49377;BME280;35253;34.688;33.040;2023-04-09T10:36:45;100785.19;;;21.82;100.00
49377;BME280;35253;34.688;33.040;2023-04-09T10:39:14;100756.66;;;21.78;100.00
49377;BME280;35253;34.688;33.040;2023-04-09T10:41:42;100699.09;;;21.92;100.00
49377;BME280;35253;34.688;33.040;2023-04-09T10:44:22;100644.16;;;22.07;100.00
49377;BME280;35253;34.688;33.040;2023-04-09T10:46:48;100623.81;;;22.19;100.00
49377;BME280;35253;34.688;33.040;2023-04-09T10:49:18;100631.00;;;22.52;100.00
49377;BME280;35253;34.688;33.040;2023-04-09T10:59:36;100672.31;;;23.12;100.00
49377;BME280;35253;34.688;33.040;2023-04-09T11:02:06;100699.84;;;23.33;100.00
49377;BME280;35253;34.688;33.040;2023-04-09T11:07:27;100728.56;;;22.87;100.00
49377;BME280;35253;34.688;33.040;2023-04-09T11:09:54;100714.97;;;22.79;100.00
49377;BME280;35253;34.688;33.040;2023-04-09T11:12:20;100714.97;;;22.87;100.00
49377;BME280;35253;34.688;33.040;2023-04-09T11:14:46;100714.97;;;22.87;100.00
49377;BME280;35253;34.688;33.040;2023-04-09T11:17:12;100682.69;;;23.09;100.00
49377;BME280;35253;34.688;33.040;2023-04-09T11:19:38;100680.81;;;23.25;100.00
49377;BME280;35253;34.688;33.040;2023-04-09T11:22:04;100703.06;;;23.45;100.00
49377;BME280;35253;34.688;33.040;2023-04-09T11:24:44;100703.41;;;23.34;100.00
49377;BME280;35253;34.688;33.040;2023-04-09T11:27:11;100693.56;;;23.09;100.00
49377;BME280;35253;34.688;33.040;2023-04-09T11:29:37;100688.31;;;22.99;100.00
49377;BME280;35253;34.688;33.040;2023-04-09T11:32:03;100694.94;;;22.97;100.00
49377;BME280;35253;34.688;33.040;2023-04-09T11:34:31;100706.31;;;23.08;100.00
49377;BME280;35253;34.688;33.040;2023-04-09T11:36:57;100700.34;;;23.29;100.00
49377;BME280;35253;34.688;33.040;2023-04-09T11:39:27;100701.59;;;23.90;100.00
49377;BME280;35253;34.688;33.040;2023-04-09T11:41:53;100691.88;;;24.80;100.00
49377;BME280;35253;34.688;33.040;2023-04-09T11:44:22;100686.94;;;24.83;100.00
49377;BME280;35253;34.688;33.040;2023-04-09T11:46:48;100691.28;;;25.15;100.00
49377;BME280;35253;34.688;33.040;2023-04-09T11:49:15;100686.94;;;25.06;100.00
49377;BME280;35253;34.688;33.040;2023-04-09T11:51:41;100704.25;;;24.67;100.00
49377;BME280;35253;34.688;33.040;2023-04-09T11:54:07;100703.91;;;24.01;100.00
49377;BME280;35253;34.688;33.040;2023-04-09T11:56:34;100695.09;;;23.99;100.00
49377;BME280;35253;34.688;33.040;2023-04-09T11:59:01;100694.06;;;24.39;100.00
49377;BME280;35253;34.688;33.040;2023-04-09T12:01:31;100696.84;;;24.53;100.00
49377;BME280;35253;34.688;33.040;2023-04-09T12:03:58;100716.97;;;24.52;100.00
49377;BME280;35253;34.688;33.040;2023-04-09T12:06:24;100724.78;;;24.24;100.00
49377;BME280;35253;34.688;33.040;2023-04-09T12:08:54;100737.34;;;23.87;100.00
49377;BME280;35253;34.688;33.040;2023-04-09T12:11:29;100723.03;;;23.85;100.00
49377;BME280;35253;34.688;33.040;2023-04-09T12:14:02;100713.13;;;23.92;100.00
49377;BME280;35253;34.688;33.040;2023-04-09T12:16:33;100723.50;;;23.96;100.00
49377;BME280;35253;34.688;33.040;2023-04-09T12:19:02;100718.97;;;24.28;100.00
49377;BME280;35253;34.688;33.040;2023-04-09T12:21:53;100738.06;;;24.58;100.00
49377;BME280;35253;34.688;33.040;2023-04-09T12:24:23;100743.72;;;24.49;100.00
49377;BME280;35253;34.688;33.040;2023-04-09T12:26:50;100748.53;;;24.47;100.00
49377;BME280;35253;34.688;33.040;2023-04-09T12:29:18;100738.97;;;24.12;100.00
49377;BME280;35253;34.688;33.040;2023-04-09T12:31:45;100730.50;;;23.99;100.00
49377;BME280;35253;34.688;33.040;2023-04-09T12:34:11;100724.75;;;23.86;100.00
49377;BME280;35253;34.688;33.040;2023-04-09T12:36:38;100726.47;;;23.87;100.00
49377;BME280;35253;34.688;33.040;2023-04-09T12:39:06;100741.44;;;23.83;100.00
49377;BME280;35253;34.688;33.040;2023-04-09T12:41:31;100742.78;;;23.78;100.00
49377;BME280;35253;34.688;33.040;2023-04-09T12:43:57;100748.25;;;23.78;100.00
49377;BME280;35253;34.688;33.040;2023-04-09T12:46:23;100744.72;;;23.62;100.00
49377;BME280;35253;34.688;33.040;2023-04-09T12:48:48;100751.00;;;23.62;100.00
49377;BME280;35253;34.688;33.040;2023-04-09T12:51:14;100744.38;;;23.65;100.00
49377;BME280;35253;34.688;33.040;2023-04-09T12:53:40;100743.53;;;23.64;100.00
49377;BME280;35253;34.688;33.040;2023-04-09T12:56:06;100744.38;;;23.57;96.50
49377;BME280;35253;34.688;33.040;2023-04-09T12:58:32;100730.63;;;23.50;95.87
49377;BME280;35253;34.688;33.040;2023-04-09T13:00:58;100745.75;;;23.53;96.18